Bethune, Colorado
Current Conditions -  °F | °C
As of 9:53 AM on Sunday 23 Nov 2014 (Local Time) from KITR Reporting Station
Clear Clear  
Wind Chill: -1°   Ceiling: Unl
Heat Index:   Visibility: 10mi
Dew Point: -11°   Wind: 29mph
Humidity: 31%   Direction: 360°N
Pressure: 29.73"   Gusts: 38mph
Location:  39.3°N, 102.42°W
Report Text: KITR 231653Z AUTO 36025G33KT 10SM CLR 05/M11 A2973 RMK AO2 PK WND 36036/1642 SLP061 T00501111
Loading
Personal Weather Stations






























Interactive Weather Map New forecast layout! Learn more

10-Day Weather Forecast

Advertisements
Track Severe Weather on mobile